createdAt,value
2022-08-30T00:01:01.415Z,102281.31
2022-08-30T00:03:28.129Z,102291.19
2022-08-30T00:05:56.253Z,102291.13
2022-08-30T00:08:23.204Z,102289.59
2022-08-30T00:10:51.223Z,102285.84
2022-08-30T00:13:19.529Z,102278.72
2022-08-30T00:15:46.734Z,102282.38
2022-08-30T00:18:13.439Z,102276.94
2022-08-30T00:20:40.438Z,102279.63
2022-08-30T00:23:07.267Z,102278.81
2022-08-30T00:25:34.057Z,102282.28
2022-08-30T00:28:00.642Z,102281.50
2022-08-30T00:30:27.215Z,102286.09
2022-08-30T00:32:54.194Z,102282.38
2022-08-30T00:35:21.640Z,102272.47
2022-08-30T00:37:48.420Z,102278.72
2022-08-30T00:40:15.996Z,102275.19
2022-08-30T00:42:44.099Z,102275.16
2022-08-30T00:45:19.104Z,102279.03
2022-08-30T00:47:46.181Z,102280.72
2022-08-30T00:50:14.564Z,102280.81
2022-08-30T00:52:45.153Z,102275.41
2022-08-30T00:55:14.170Z,102280.97
2022-08-30T00:57:43.295Z,102277.28
2022-08-30T01:00:11.195Z,102277.16
2022-08-30T01:02:37.993Z,102278.94
2022-08-30T01:05:06.817Z,102280.81
2022-08-30T01:07:35.125Z,102276.31
2022-08-30T01:10:02.446Z,102282.50
2022-08-30T01:12:30.061Z,102279.03
2022-08-30T01:14:57.907Z,102282.69
2022-08-30T01:17:25.592Z,102284.59
2022-08-30T01:20:13.275Z,102289.94
2022-08-30T01:22:49.506Z,102289.97
2022-08-30T01:25:25.946Z,102294.56
2022-08-30T01:27:57.137Z,102287.34
2022-08-30T01:30:24.082Z,102297.34
2022-08-30T01:32:54.244Z,102291.97
2022-08-30T01:35:20.848Z,102292.81
2022-08-30T01:37:47.537Z,102290.09
2022-08-30T01:40:15.613Z,102291.84
2022-08-30T01:42:42.228Z,102296.44
2022-08-30T01:45:09.890Z,102301.88
2022-08-30T01:47:36.541Z,102308.09
2022-08-30T01:50:04.936Z,102315.41
2022-08-30T01:52:31.492Z,102302.81
2022-08-30T01:54:58.056Z,102315.53
2022-08-30T01:57:26.900Z,102310.13
2022-08-30T01:59:53.873Z,102312.88
2022-08-30T02:02:24.294Z,102311.91
2022-08-30T02:04:51.824Z,102316.28
2022-08-30T02:07:18.375Z,102313.66
2022-08-30T02:09:46.174Z,102319.03
2022-08-30T02:12:13.203Z,102310.13
2022-08-30T02:14:40.168Z,102311.66
2022-08-30T02:17:08.585Z,102318.00
2022-08-30T02:19:35.638Z,102313.75
2022-08-30T02:22:02.551Z,102313.63
2022-08-30T02:24:29.120Z,102302.88
2022-08-30T02:26:55.724Z,102306.44
2022-08-30T02:29:23.496Z,102307.13
2022-08-30T02:31:50.058Z,102309.16
2022-08-30T02:34:17.546Z,102304.75
2022-08-30T02:36:44.835Z,102305.50
2022-08-30T02:39:12.674Z,102315.66
2022-08-30T02:41:39.808Z,102308.28
2022-08-30T02:44:07.414Z,102312.88
2022-08-30T02:46:34.745Z,102303.84
2022-08-30T02:49:13.186Z,102303.97
2022-08-30T02:51:49.056Z,102303.97
2022-08-30T02:54:19.867Z,102306.59
2022-08-30T02:56:47.882Z,102304.88
2022-08-30T02:59:15.785Z,102311.97
2022-08-30T03:01:42.560Z,102308.53
2022-08-30T03:04:09.840Z,102315.78
2022-08-30T03:06:36.629Z,102313.94
2022-08-30T03:09:03.905Z,102310.38
2022-08-30T03:11:30.606Z,102315.69
2022-08-30T03:13:57.167Z,102310.38
2022-08-30T03:16:23.793Z,102314.84
2022-08-30T03:18:50.502Z,102314.94
2022-08-30T03:21:17.573Z,102314.09
2022-08-30T03:23:44.553Z,102317.69
2022-08-30T03:26:14.678Z,102324.91
2022-08-30T03:28:44.060Z,102324.91
2022-08-30T03:31:10.922Z,102314.09
2022-08-30T03:33:40.361Z,102323.25
2022-08-30T03:36:08.689Z,102325.03
2022-08-30T03:38:35.422Z,102324.16
2022-08-30T03:41:02.060Z,102322.38
2022-08-30T03:43:28.648Z,102326.00
2022-08-30T03:45:56.421Z,102324.16
2022-08-30T03:48:23.035Z,102321.41
2022-08-30T03:50:49.620Z,102323.16
2022-08-30T03:53:16.344Z,102321.34
2022-08-30T03:55:43.020Z,102317.69
2022-08-30T03:58:09.638Z,102321.47
2022-08-30T04:00:36.346Z,102318.72
2022-08-30T04:03:03.181Z,102319.75
2022-08-30T04:05:30.707Z,102321.41
2022-08-30T04:07:57.350Z,102323.28
2022-08-30T04:10:23.931Z,102327.81
2022-08-30T04:12:50.647Z,102330.56
2022-08-30T04:15:19.040Z,102330.53
2022-08-30T04:17:46.055Z,102330.56
2022-08-30T04:20:12.788Z,102330.56
2022-08-30T04:22:39.352Z,102328.84
2022-08-30T04:25:06.745Z,102330.72
2022-08-30T04:27:33.369Z,102330.72
2022-08-30T04:30:01.203Z,102334.34
2022-08-30T04:32:27.800Z,102333.41
2022-08-30T04:34:59.640Z,102334.34
2022-08-30T04:37:27.420Z,102330.78
2022-08-30T04:40:00.600Z,102331.69
2022-08-30T04:42:30.053Z,102341.53
2022-08-30T04:44:57.159Z,102339.88
2022-08-30T04:47:23.903Z,102339.81
2022-08-30T04:49:50.469Z,102345.28
2022-08-30T04:52:17.047Z,102340.63
2022-08-30T04:54:43.601Z,102343.50
2022-08-30T04:57:10.203Z,102339.94
2022-08-30T04:59:38.677Z,102347.03
2022-08-30T05:02:05.536Z,102354.31
2022-08-30T05:04:32.086Z,102359.84
2022-08-30T05:06:58.675Z,102359.81
2022-08-30T05:09:25.258Z,102359.91
2022-08-30T05:11:51.836Z,102358.06
2022-08-30T05:14:18.420Z,102364.41
2022-08-30T05:16:46.334Z,102358.13
2022-08-30T05:19:13.014Z,102362.50
2022-08-30T05:21:40.737Z,102356.16
2022-08-30T05:24:08.129Z,102351.84
2022-08-30T05:26:38.474Z,102352.75
2022-08-30T05:29:05.103Z,102360.94
2022-08-30T05:31:34.552Z,102363.53
2022-08-30T05:34:01.759Z,102366.28
2022-08-30T05:36:29.944Z,102369.59
2022-08-30T05:38:56.841Z,102367.13
2022-08-30T05:41:26.498Z,102370.53
2022-08-30T05:43:55.022Z,102370.56
2022-08-30T05:46:22.142Z,102363.34
2022-08-30T05:48:49.968Z,102363.41
2022-08-30T05:51:18.237Z,102365.22
2022-08-30T05:53:45.739Z,102366.94
2022-08-30T05:56:13.973Z,102369.69
2022-08-30T05:58:40.676Z,102376.16
2022-08-30T06:01:07.777Z,102375.19
2022-08-30T06:03:34.363Z,102376.19
2022-08-30T06:06:01.379Z,102385.19
2022-08-30T06:08:28.084Z,102379.97
2022-08-30T06:10:54.716Z,102380.66
2022-08-30T06:13:22.326Z,102383.47
2022-08-30T06:15:49.621Z,102387.09
2022-08-30T06:18:16.378Z,102388.88
2022-08-30T06:20:44.718Z,102392.56
2022-08-30T06:23:11.296Z,102394.38
2022-08-30T06:25:41.409Z,102392.41
2022-08-30T06:28:09.665Z,102390.69
2022-08-30T06:30:36.421Z,102394.19
2022-08-30T06:33:03.119Z,102386.06
2022-08-30T06:35:32.671Z,102393.16
2022-08-30T06:38:02.099Z,102387.84
2022-08-30T06:40:28.958Z,102392.28
2022-08-30T06:42:55.697Z,102386.88
2022-08-30T06:45:22.581Z,102387.72
2022-08-30T06:47:49.493Z,102388.56
2022-08-30T06:50:17.257Z,102390.34
2022-08-30T06:52:44.865Z,102388.47
2022-08-30T06:55:13.243Z,102388.34
2022-08-30T06:57:39.925Z,102391.06
2022-08-30T07:00:09.214Z,102391.97
2022-08-30T07:02:39.231Z,102395.59
2022-08-30T07:05:06.666Z,102388.34
2022-08-30T07:07:33.386Z,102390.06
2022-08-30T07:10:03.453Z,102401.78
2022-08-30T07:12:30.568Z,102393.63
2022-08-30T07:14:57.130Z,102387.31
2022-08-30T07:17:41.826Z,102387.19
2022-08-30T07:20:09.168Z,102393.44
2022-08-30T07:22:35.963Z,102387.16
2022-08-30T07:25:02.582Z,102388.03
2022-08-30T07:27:29.150Z,102380.78
2022-08-30T07:29:55.981Z,102382.63
2022-08-30T07:32:22.591Z,102393.34
2022-08-30T07:34:49.196Z,102396.97
2022-08-30T07:37:18.421Z,102397.03
2022-08-30T07:39:47.764Z,102398.75
2022-08-30T07:42:14.758Z,102404.13
2022-08-30T07:44:41.343Z,102411.38
2022-08-30T07:47:08.051Z,102411.22
2022-08-30T07:49:34.599Z,102411.38
2022-08-30T07:52:01.182Z,102414.88
2022-08-30T07:54:27.753Z,102418.50
2022-08-30T07:56:55.908Z,102417.72
2022-08-30T07:59:23.779Z,102422.16
2022-08-30T08:01:50.406Z,102418.47
2022-08-30T08:04:19.453Z,102405.84
2022-08-30T08:06:46.206Z,102407.63
2022-08-30T08:09:12.924Z,102407.63
2022-08-30T08:11:41.368Z,102403.09
2022-08-30T08:14:08.263Z,102405.81
2022-08-30T08:16:36.164Z,102414.72
2022-08-30T08:19:04.558Z,102417.72
2022-08-30T08:21:31.151Z,102412.97
2022-08-30T08:23:57.739Z,102420.25
2022-08-30T08:26:24.328Z,102422.19
2022-08-30T08:28:51.072Z,102429.31
2022-08-30T08:31:24.007Z,102419.34
2022-08-30T08:33:55.317Z,102413.81
2022-08-30T08:36:22.099Z,102429.97
2022-08-30T08:38:48.667Z,102419.22
2022-08-30T08:41:33.947Z,102421.81
2022-08-30T08:44:00.670Z,102425.41
2022-08-30T08:46:37.986Z,102418.13
2022-08-30T08:49:06.591Z,102420.81
2022-08-30T08:51:54.631Z,102426.16
2022-08-30T08:54:39.491Z,102439.78
2022-08-30T08:57:06.123Z,102429.88
2022-08-30T08:59:32.878Z,102437.81
2022-08-30T09:02:02.990Z,102433.28
2022-08-30T09:04:35.967Z,102431.56
2022-08-30T09:07:05.808Z,102429.72
2022-08-30T09:09:38.042Z,102434.22
2022-08-30T09:12:07.244Z,102426.94
2022-08-30T09:14:48.522Z,102428.72
2022-08-30T09:17:16.969Z,102417.88
2022-08-30T09:19:52.307Z,102424.16
2022-08-30T09:22:33.695Z,102423.25
2022-08-30T09:25:05.953Z,102426.84
2022-08-30T09:27:34.721Z,102423.13
2022-08-30T09:30:23.331Z,102423.91
2022-08-30T09:32:59.718Z,102427.47
2022-08-30T09:35:38.851Z,102423.00
2022-08-30T09:38:10.626Z,102431.13
2022-08-30T09:40:44.010Z,102425.56
2022-08-30T09:43:20.852Z,102415.66
2022-08-30T09:45:50.361Z,102424.69
2022-08-30T09:48:44.130Z,102415.69
2022-08-30T09:51:10.916Z,102422.91
2022-08-30T09:54:07.219Z,102421.09
2022-08-30T09:56:36.107Z,102406.56
2022-08-30T09:59:40.913Z,102413.78
2022-08-30T10:02:13.508Z,102412.81
2022-08-30T10:04:58.591Z,102407.31
2022-08-30T10:07:29.276Z,102406.34
2022-08-30T10:10:19.794Z,102401.97
2022-08-30T10:13:33.688Z,102410.03
2022-08-30T10:16:10.571Z,102404.56
2022-08-30T10:18:51.176Z,102415.25
2022-08-30T10:21:25.665Z,102416.09
2022-08-30T10:24:14.120Z,102413.53
2022-08-30T10:26:54.691Z,102412.56
2022-08-30T10:29:38.333Z,102418.75
2022-08-30T10:32:20.315Z,102420.53
2022-08-30T10:34:55.162Z,102414.16
2022-08-30T10:37:29.060Z,102422.25
2022-08-30T10:40:24.091Z,102421.38
2022-08-30T10:42:53.312Z,102428.59
2022-08-30T10:45:20.994Z,102416.91
2022-08-30T10:47:57.759Z,102415.88
2022-08-30T10:50:41.360Z,102413.22
2022-08-30T10:53:19.111Z,102419.69
2022-08-30T10:55:51.181Z,102407.75
2022-08-30T10:58:18.506Z,102424.13
2022-08-30T11:01:08.130Z,102414.94
2022-08-30T11:03:57.500Z,102399.53
2022-08-30T11:06:38.336Z,102410.19
2022-08-30T11:09:47.366Z,102398.47
2022-08-30T11:12:34.686Z,102397.59
2022-08-30T11:15:13.495Z,102402.06
2022-08-30T11:17:47.053Z,102397.59
2022-08-30T11:20:28.343Z,102400.41
2022-08-30T11:23:29.028Z,102389.56
2022-08-30T11:26:07.481Z,102387.50
2022-08-30T11:28:37.071Z,102383.09
2022-08-30T11:31:08.886Z,102385.78
2022-08-30T11:33:48.845Z,102393.00
2022-08-30T11:36:37.237Z,102382.16
2022-08-30T11:39:09.970Z,102376.88
2022-08-30T11:44:32.894Z,102374.13
2022-08-30T11:47:01.506Z,102380.44
2022-08-30T11:49:39.940Z,102373.09
2022-08-30T11:52:26.295Z,102379.47
2022-08-30T11:55:25.723Z,102376.88
2022-08-30T11:58:16.061Z,102379.47
2022-08-30T12:00:51.577Z,102374.03
2022-08-30T12:03:19.827Z,102373.03
2022-08-30T12:05:49.568Z,102377.47
2022-08-30T12:08:21.107Z,102371.91
2022-08-30T12:10:59.993Z,102374.78
2022-08-30T12:13:40.026Z,102378.28
2022-08-30T12:16:14.826Z,102369.41
2022-08-30T12:19:13.479Z,102370.19
2022-08-30T12:21:45.131Z,102375.56
2022-08-30T12:24:16.880Z,102373.72
2022-08-30T12:26:45.297Z,102364.69
2022-08-30T12:29:19.006Z,102375.28
2022-08-30T12:31:47.614Z,102370.03
2022-08-30T12:34:27.685Z,102368.16
2022-08-30T12:36:54.192Z,102365.47
2022-08-30T12:39:27.902Z,102359.06
2022-08-30T12:41:55.150Z,102363.41
2022-08-30T12:44:25.699Z,102360.78
2022-08-30T12:46:59.725Z,102355.53
2022-08-30T12:49:29.016Z,102362.75
2022-08-30T12:51:56.512Z,102357.00
2022-08-30T12:54:28.376Z,102363.50
2022-08-30T12:59:59.629Z,102349.88
2022-08-30T13:02:43.180Z,102341.56
2022-08-30T13:05:32.270Z,102339.72
2022-08-30T13:08:18.261Z,102344.28
2022-08-30T13:11:08.430Z,102338.03
2022-08-30T13:13:37.626Z,102345.41
2022-08-30T13:16:26.645Z,102345.31
2022-08-30T13:19:19.213Z,102333.50
2022-08-30T13:21:57.249Z,102345.09
2022-08-30T13:24:25.755Z,102342.44
2022-08-30T13:26:53.679Z,102338.09
2022-08-30T13:29:22.856Z,102336.03
2022-08-30T13:31:52.670Z,102328.56
2022-08-30T13:34:22.503Z,102333.22
2022-08-30T13:36:55.395Z,102339.25
2022-08-30T13:39:22.119Z,102333.16
2022-08-30T13:41:49.560Z,102339.50
2022-08-30T13:44:16.345Z,102334.94
2022-08-30T13:46:52.254Z,102324.94
2022-08-30T13:49:43.914Z,102332.41
2022-08-30T13:52:22.347Z,102329.38
2022-08-30T13:54:51.199Z,102338.44
2022-08-30T14:00:11.077Z,102327.66
2022-08-30T14:02:45.490Z,102332.25
2022-08-30T14:05:37.675Z,102328.56
2022-08-30T14:08:01.119Z,102328.50
2022-08-30T14:10:31.375Z,102329.63
2022-08-30T14:13:07.762Z,102332.09
2022-08-30T14:15:39.236Z,102328.56
2022-08-30T14:18:07.385Z,102333.66
2022-08-30T14:20:38.811Z,102329.91
2022-08-30T14:23:09.898Z,102322.81
2022-08-30T14:25:37.025Z,102328.34
2022-08-30T14:28:03.818Z,102319.28
2022-08-30T14:30:30.441Z,102320.97
2022-08-30T14:32:57.015Z,102324.41
2022-08-30T14:35:23.612Z,102328.00
2022-08-30T14:37:50.563Z,102332.50
2022-08-30T14:40:18.423Z,102320.97
2022-08-30T14:42:45.212Z,102319.06
2022-08-30T14:45:11.961Z,102317.13
2022-08-30T14:47:38.797Z,102319.81
2022-08-30T14:50:06.499Z,102310.69
2022-08-30T14:52:33.814Z,102307.97
2022-08-30T14:55:06.197Z,102318.81
2022-08-30T14:57:38.207Z,102310.56
2022-08-30T15:00:07.786Z,102304.25
2022-08-30T15:02:34.505Z,102317.03
2022-08-30T15:05:01.737Z,102306.00
2022-08-30T15:07:28.324Z,102307.03
2022-08-30T15:09:54.913Z,102308.88
2022-08-30T15:12:21.632Z,102304.25
2022-08-30T15:14:48.611Z,102306.66
2022-08-30T15:17:17.871Z,102307.72
2022-08-30T15:19:44.849Z,102308.63
2022-08-30T15:22:11.428Z,102303.34
2022-08-30T15:24:38.000Z,102306.81
2022-08-30T15:27:04.930Z,102312.34
2022-08-30T15:29:32.994Z,102314.94
2022-08-30T15:32:00.883Z,102300.59
2022-08-30T15:34:28.543Z,102298.66
2022-08-30T15:36:56.067Z,102297.59
2022-08-30T15:39:22.651Z,102299.47
2022-08-30T15:41:54.650Z,102297.56
2022-08-30T15:44:23.829Z,102304.69
2022-08-30T15:46:50.496Z,102291.28
2022-08-30T15:49:20.106Z,102292.88
2022-08-30T15:51:48.840Z,102298.56
2022-08-30T15:54:20.439Z,102293.94
2022-08-30T15:56:47.210Z,102289.41
2022-08-30T15:59:15.445Z,102291.19
2022-08-30T16:01:43.530Z,102291.28
2022-08-30T16:04:10.763Z,102294.06
2022-08-30T16:06:38.156Z,102295.03
2022-08-30T16:09:06.786Z,102287.88
2022-08-30T16:11:33.795Z,102283.13
2022-08-30T16:14:01.611Z,102284.31
2022-08-30T16:16:28.373Z,102293.25
2022-08-30T16:18:55.370Z,102290.53
2022-08-30T16:21:27.489Z,102287.88
2022-08-30T16:23:56.485Z,102283.25
2022-08-30T16:26:23.479Z,102283.44
2022-08-30T16:28:50.605Z,102286.19
2022-08-30T16:31:18.161Z,102279.97
2022-08-30T16:33:45.335Z,102275.34
2022-08-30T16:36:12.843Z,102275.41
2022-08-30T16:38:40.477Z,102282.56
2022-08-30T16:41:16.557Z,102267.97
2022-08-30T16:43:45.700Z,102269.81
2022-08-30T16:46:14.780Z,102264.31
2022-08-30T16:48:42.913Z,102266.19
2022-08-30T16:51:16.347Z,102277.13
2022-08-30T16:53:43.369Z,102260.75
2022-08-30T16:56:19.499Z,102262.53
2022-08-30T16:58:47.798Z,102270.69
2022-08-30T17:01:15.613Z,102268.03
2022-08-30T17:03:43.935Z,102263.41
2022-08-30T17:06:10.659Z,102268.03
2022-08-30T17:08:37.477Z,102261.50
2022-08-30T17:11:06.784Z,102269.63
2022-08-30T17:13:35.759Z,102260.56
2022-08-30T17:16:04.187Z,102267.78
2022-08-30T17:18:31.074Z,102268.59
2022-08-30T17:20:58.412Z,102267.72
2022-08-30T17:23:25.164Z,102267.72
2022-08-30T17:25:51.798Z,102267.72
2022-08-30T17:28:19.436Z,102274.81
2022-08-30T17:30:48.466Z,102271.25
2022-08-30T17:33:17.825Z,102274.03
2022-08-30T17:35:44.477Z,102272.09
2022-08-30T17:38:11.144Z,102282.03
2022-08-30T17:40:37.755Z,102273.16
2022-08-30T17:43:07.958Z,102279.38
2022-08-30T17:45:34.559Z,102276.78
2022-08-30T17:48:02.150Z,102284.00
2022-08-30T17:50:28.730Z,102282.28
2022-08-30T17:52:59.931Z,102284.94
2022-08-30T17:55:26.519Z,102296.78
2022-08-30T17:57:57.303Z,102295.91
2022-08-30T18:00:30.244Z,102297.75
2022-08-30T18:02:57.804Z,102293.25
2022-08-30T18:05:25.397Z,102300.34
2022-08-30T18:07:52.259Z,102302.22
2022-08-30T18:10:18.938Z,102304.91
2022-08-30T18:12:46.089Z,102302.22
2022-08-30T18:15:14.786Z,102309.34
2022-08-30T18:17:43.113Z,102304.91
2022-08-30T18:20:10.091Z,102309.41
2022-08-30T18:22:37.891Z,102315.78
2022-08-30T18:25:05.252Z,102326.56
2022-08-30T18:27:31.814Z,102327.50
2022-08-30T18:29:58.731Z,102331.13
2022-08-30T18:32:38.025Z,102334.78
2022-08-30T18:35:05.204Z,102335.72
2022-08-30T18:37:32.379Z,102335.72
2022-08-30T18:39:59.362Z,102338.34
2022-08-30T18:42:27.667Z,102344.66
2022-08-30T18:44:54.253Z,102339.31
2022-08-30T18:47:23.011Z,102341.19
2022-08-30T18:49:50.376Z,102340.03
2022-08-30T18:52:17.124Z,102336.47
2022-08-30T18:54:52.332Z,102347.34
2022-08-30T18:57:20.727Z,102356.47
2022-08-30T18:59:48.534Z,102352.94
2022-08-30T19:02:16.437Z,102347.56
2022-08-30T19:04:45.383Z,102353.81
2022-08-30T19:07:14.774Z,102365.66
2022-08-30T19:09:41.923Z,102362.16
2022-08-30T19:12:11.464Z,102364.03
2022-08-30T19:14:38.639Z,102360.38
2022-08-30T19:17:07.046Z,102365.66
2022-08-30T19:19:37.303Z,102369.59
2022-08-30T19:22:15.562Z,102362.19
2022-08-30T19:24:42.252Z,102360.53
2022-08-30T19:27:10.217Z,102373.25
2022-08-30T19:29:36.954Z,102376.88
2022-08-30T19:32:04.196Z,102372.44
2022-08-30T19:34:30.755Z,102367.88
2022-08-30T19:36:57.395Z,102368.00
2022-08-30T19:39:23.984Z,102378.09
2022-08-30T19:41:50.776Z,102373.53
2022-08-30T19:44:17.382Z,102371.75
2022-08-30T19:46:44.514Z,102375.22
2022-08-30T19:49:11.348Z,102384.44
2022-08-30T19:51:38.837Z,102380.81
2022-08-30T19:54:13.606Z,102386.31
2022-08-30T19:56:40.331Z,102387.25
2022-08-30T19:59:06.925Z,102382.84
2022-08-30T20:01:34.123Z,102386.53
2022-08-30T20:04:02.150Z,102382.84
2022-08-30T20:06:29.612Z,102382.91
2022-08-30T20:08:56.537Z,102382.00
2022-08-30T20:11:24.486Z,102383.72
2022-08-30T20:13:51.097Z,102389.25
2022-08-30T20:16:17.991Z,102388.38
2022-08-30T20:18:44.736Z,102388.38
2022-08-30T20:21:14.425Z,102384.84
2022-08-30T20:23:42.045Z,102391.91
2022-08-30T20:26:12.240Z,102394.63
2022-08-30T20:28:39.816Z,102391.97
2022-08-30T20:31:07.430Z,102394.72
2022-08-30T20:33:37.502Z,102393.91
2022-08-30T20:36:05.947Z,102390.16
2022-08-30T20:38:32.953Z,102395.75
2022-08-30T20:41:01.137Z,102394.88
2022-08-30T20:43:29.325Z,102396.75
2022-08-30T20:45:56.340Z,102395.00
2022-08-30T20:48:23.836Z,102401.56
2022-08-30T20:50:50.404Z,102388.69
2022-08-30T20:53:16.978Z,102400.59
2022-08-30T20:55:45.785Z,102397.84
2022-08-30T20:58:12.951Z,102401.56
2022-08-30T21:00:40.171Z,102397.97
2022-08-30T21:03:26.391Z,102397.88
2022-08-30T21:05:55.246Z,102404.16
2022-08-30T21:08:21.906Z,102405.09
2022-08-30T21:10:48.558Z,102404.22
2022-08-30T21:13:15.210Z,102395.25
2022-08-30T21:15:45.854Z,102403.34
2022-08-30T21:18:13.703Z,102397.00
2022-08-30T21:20:40.458Z,102403.31
2022-08-30T21:23:07.081Z,102401.81
2022-08-30T21:25:34.211Z,102398.03
2022-08-30T21:28:00.960Z,102407.94
2022-08-30T21:30:27.598Z,102409.84
2022-08-30T21:32:55.112Z,102406.22
2022-08-30T21:35:45.514Z,102412.50
2022-08-30T21:38:12.079Z,102421.50
2022-08-30T21:40:38.748Z,102418.84
2022-08-30T21:43:07.534Z,102421.66
2022-08-30T21:45:41.455Z,102427.06
2022-08-30T21:48:08.937Z,102421.78
2022-08-30T21:50:38.141Z,102422.81
2022-08-30T21:53:05.986Z,102427.19
2022-08-30T21:55:32.928Z,102437.19
2022-08-30T21:57:59.577Z,102423.66
2022-08-30T22:00:26.371Z,102432.72
2022-08-30T22:02:53.345Z,102427.31
2022-08-30T22:05:20.088Z,102435.41
2022-08-30T22:07:46.663Z,102439.03
2022-08-30T22:10:13.311Z,102431.91
2022-08-30T22:12:39.870Z,102436.41
2022-08-30T22:15:09.302Z,102449.03
2022-08-30T22:17:35.887Z,102440.00
2022-08-30T22:20:03.659Z,102447.19
2022-08-30T22:22:30.271Z,102445.53
2022-08-30T22:24:56.854Z,102456.25
2022-08-30T22:27:23.454Z,102452.75
2022-08-30T22:29:50.007Z,102451.88
2022-08-30T22:32:16.631Z,102459.03
2022-08-30T22:34:45.772Z,102460.78
2022-08-30T22:37:12.331Z,102463.59
2022-08-30T22:39:38.948Z,102468.13
2022-08-30T22:42:05.812Z,102468.19
2022-08-30T22:44:32.424Z,102467.22
2022-08-30T22:47:00.665Z,102470.88
2022-08-30T22:49:27.590Z,102472.69
2022-08-30T22:51:54.183Z,102468.22
2022-08-30T22:54:20.771Z,102463.72
2022-08-30T22:56:47.341Z,102465.47
2022-08-30T22:59:15.023Z,102465.56
2022-08-30T23:01:43.359Z,102478.25
2022-08-30T23:04:11.347Z,102474.50
2022-08-30T23:06:37.947Z,102476.44
2022-08-30T23:09:06.198Z,102478.31
2022-08-30T23:11:33.705Z,102479.00
2022-08-30T23:14:01.144Z,102465.56
2022-08-30T23:16:27.834Z,102478.31
2022-08-30T23:18:54.503Z,102478.22
2022-08-30T23:21:23.744Z,102475.56
2022-08-30T23:24:10.299Z,102477.34
2022-08-30T23:26:55.944Z,102467.47
2022-08-30T23:29:41.684Z,102474.72
2022-08-30T23:32:26.886Z,102485.59
2022-08-30T23:35:11.923Z,102480.97
2022-08-30T23:37:56.964Z,102486.47
2022-08-30T23:40:42.606Z,102477.47
2022-08-30T23:43:28.810Z,102487.47
2022-08-30T23:46:18.788Z,102476.63
2022-08-30T23:49:08.331Z,102476.50
2022-08-30T23:51:55.234Z,102482.06
2022-08-30T23:54:40.293Z,102478.34
2022-08-30T23:57:25.415Z,102474.78
